Auckland International Airport
NZAA : rendu visible

Aérodrome :











RETROUVEZ-NOUS SUR...

 
LOGIN :

S'inscrire | Disclaimer

   EN    FR    IT 

 









Légende :    VFR   VFR Marginal   IFR   IFR Intensif   IFR Très Intensif
Visi : 
Plafond : 
>= 8 km
>= 3000ft
5 à 8 km
1000 à 3000 ft
1500m à 5 km
500 à 1000 ft
800 à 1500m
200 à 500 ft
< 800m
< 200 ft
Symboles :   Orages  Brouillard  Fortes neiges  Fortes précipitations  Vent > 20 kt






- Altitude de l'aérodrome : 23 ft
- Code IATA : AKL


NZAA - Auckland International

DERNIER METAR :
  • 021200Z AUTO 26009KT 9999 NCD 13/11 Q1019 NOSIG

METARs EXPIRÉS :
  • 021130Z AUTO 26007KT 9999 NCD 13/11 Q1019 NOSIG
  • 021100Z AUTO 27007KT 9999 BKN037/// 13/11 Q1019 NOSIG
  • 021030Z AUTO 29005KT 9999 BKN035/// 13/11 Q1019 NOSIG
  • 021000Z AUTO 30003KT 9999 FEW028/// BKN033/// 13/11 Q1019 NOSIG
  • 020930Z AUTO 28006KT 260V330 9999 BKN026/// 13/12 Q1020 NOSIG

TAF TAF NZAA
Valide du 02 à 12h jusqu'au 03 à 12h UTC


021105Z 0212/0312 24008KT 9999 FEW020
BECMG 0220/0222 03012KT
FM030200 03018G30KT 9999 -RA SCT014 BKN020
TEMPO 0304/0308 6000 RA BKN014 FEW020TCU
PROB40
TEMPO 0304/0308 3000 +RA BKN012 SCT020TCU
FM030700 34010KT 9999 -SHRA BKN020
FIR NZZC / Océanie



MET'MAP, la Météo Aéronautique d'un coup d'oeil ! - Copyright ORBIFLY Décembre 2007 - Disclaimer

ORBIFLY MET'MAP TEAM :

Programmation & Développement : Alexandra Zaïnal
Sur une idée originale de : Baudouin d'Aumeries
Assistance à la programmation : Marc-Olivier Méhu
Soutien technique & logistique : Manuel Goepfert

Contact : metmap@orbifly.com




SOURCES & CREDITS :

   NOAA       Earth
Advisory